createdAt,value
2023-04-19T06:25:56.281Z,25.00
2023-04-19T06:26:56.977Z,25.00
2023-04-19T06:27:56.902Z,25.00
2023-04-19T06:28:57.845Z,25.00
2023-04-19T06:29:57.226Z,25.00
2023-04-19T06:30:56.672Z,0.00
2023-04-19T06:31:56.576Z,0.00
2023-04-19T06:32:56.604Z,0.00
2023-04-19T06:33:56.925Z,0.00
2023-04-19T06:34:56.181Z,0.00
2023-04-19T06:35:56.083Z,0.00
2023-04-19T06:36:56.011Z,0.00
2023-04-19T06:37:56.058Z,0.00
2023-04-19T06:38:56.298Z,0.00
2023-04-19T06:39:55.658Z,0.00
2023-04-19T06:40:56.558Z,0.00
2023-04-19T06:41:55.536Z,0.00
2023-04-19T06:42:55.772Z,0.00
2023-04-19T06:43:55.368Z,0.00
2023-04-19T06:44:55.781Z,0.00
2023-04-19T06:45:55.225Z,0.00
2023-04-19T06:46:55.104Z,0.00
2023-04-19T06:47:55.022Z,0.00
2023-04-19T06:48:54.942Z,0.00
2023-04-19T06:49:55.242Z,0.00
2023-04-19T06:50:54.694Z,0.00
2023-04-19T06:51:54.572Z,0.00
2023-04-19T06:52:54.463Z,0.00
2023-04-19T06:53:54.759Z,0.00
2023-04-19T06:54:54.732Z,0.00
2023-04-19T06:55:54.236Z,0.00
2023-04-19T06:56:54.131Z,0.00
2023-04-19T06:57:53.970Z,0.00
2023-04-19T06:58:53.837Z,0.00
2023-04-19T06:59:53.722Z,0.00
2023-04-19T07:00:53.726Z,0.00
2023-04-19T07:01:53.547Z,12.67
2023-04-19T07:02:53.508Z,25.79
2023-04-19T07:03:55.187Z,25.53
2023-04-19T07:04:53.353Z,25.62
2023-04-19T07:05:53.022Z,17.12
2023-04-19T07:06:53.254Z,11.66
2023-04-19T07:07:52.803Z,4.56
2023-04-19T07:08:52.641Z,0.00
2023-04-19T07:09:52.519Z,25.00
2023-04-19T07:10:52.382Z,25.26
2023-04-19T07:11:52.755Z,25.67
2023-04-19T07:12:52.133Z,27.30
2023-04-19T07:13:52.091Z,25.00
2023-04-19T07:14:51.894Z,26.27
2023-04-19T07:15:51.868Z,25.47
2023-04-19T07:16:52.745Z,26.25
2023-04-19T07:17:51.590Z,26.35
2023-04-19T07:18:59.640Z,25.43
2023-04-19T07:19:51.272Z,25.86
2023-04-19T07:20:51.178Z,25.57
2023-04-19T07:21:51.019Z,18.87
2023-04-19T07:22:51.248Z,15.55
2023-04-19T07:23:50.774Z,12.81
2023-04-19T07:24:50.634Z,27.01
2023-04-19T07:25:50.543Z,25.22
2023-04-19T07:26:50.393Z,25.00
2023-04-19T07:27:51.900Z,27.06
2023-04-19T07:28:50.149Z,26.65
2023-04-19T07:29:50.041Z,22.28
2023-04-19T07:30:49.894Z,18.94
2023-04-19T07:31:49.794Z,18.34
2023-04-19T07:32:49.823Z,14.03
2023-04-19T07:33:49.760Z,25.84
2023-04-19T07:34:49.748Z,25.85
2023-04-19T07:35:49.266Z,26.78
2023-04-19T07:36:52.474Z,25.00
2023-04-19T07:37:49.025Z,25.30
2023-04-19T07:38:49.243Z,25.07
2023-04-19T07:39:48.884Z,25.47
2023-04-19T07:40:48.725Z,24.21
2023-04-19T07:41:48.514Z,17.45
2023-04-19T07:42:48.747Z,0.00
2023-04-19T07:43:48.272Z,4.12
2023-04-19T07:44:48.248Z,10.70
2023-04-19T07:45:51.286Z,24.36
2023-04-19T07:46:47.941Z,16.98
2023-04-19T07:47:47.889Z,0.00
2023-04-19T07:48:47.779Z,10.90
2023-04-19T07:49:47.625Z,28.67
2023-04-19T07:50:47.774Z,46.94
2023-04-19T07:51:57.893Z,66.29
2023-04-19T07:52:47.350Z,67.30
2023-04-19T07:53:47.295Z,69.43
2023-04-19T07:54:47.244Z,71.32
2023-04-19T07:55:47.276Z,74.61
2023-04-19T07:56:47.109Z,78.73
2023-04-19T07:57:47.271Z,76.24
2023-04-19T07:58:56.466Z,75.21
2023-04-19T07:59:47.282Z,75.44
2023-04-19T08:00:46.732Z,75.32
2023-04-19T08:01:46.738Z,67.35
2023-04-19T08:02:46.904Z,65.65
2023-04-19T08:03:46.639Z,61.81
2023-04-19T08:04:46.628Z,61.18
2023-04-19T08:05:46.368Z,58.19
2023-04-19T08:06:45.982Z,57.69
2023-04-19T08:07:46.311Z,56.65
2023-04-19T08:08:45.760Z,56.47
2023-04-19T08:09:45.620Z,56.78
2023-04-19T08:10:45.454Z,54.79
2023-04-19T08:11:45.575Z,53.04
2023-04-19T08:12:57.270Z,51.07
2023-04-19T08:13:55.121Z,51.50
2023-04-19T08:14:59.220Z,51.86
2023-04-19T08:17:19.476Z,52.00
2023-04-19T08:17:45.124Z,51.89
2023-04-19T08:18:44.453Z,52.90
2023-04-19T08:19:43.331Z,51.75
2023-04-19T08:20:47.444Z,51.57
2023-04-19T08:21:44.083Z,51.78
2023-04-19T08:22:43.990Z,52.32
2023-04-19T08:23:48.215Z,51.14
2023-04-19T08:24:44.450Z,51.53
2023-04-19T08:25:43.975Z,51.44
2023-04-19T08:26:43.469Z,49.29
2023-04-19T08:27:43.349Z,47.58
2023-04-19T08:28:43.215Z,45.83
2023-04-19T08:29:43.097Z,42.68
2023-04-19T08:30:42.962Z,39.42
2023-04-19T08:31:42.858Z,39.85
2023-04-19T08:32:42.768Z,38.40
2023-04-19T08:33:42.814Z,38.80
2023-04-19T08:34:42.801Z,36.89
2023-04-19T08:35:42.803Z,36.12
2023-04-19T08:36:48.765Z,34.30
2023-04-19T08:37:42.096Z,34.77
2023-04-19T08:38:44.730Z,37.21
2023-04-19T08:39:42.656Z,35.37
2023-04-19T08:40:41.859Z,0.00
2023-04-19T08:41:42.990Z,0.00
2023-04-19T08:42:41.813Z,0.00
2023-04-19T08:43:41.883Z,0.00
2023-04-19T08:44:49.268Z,0.00
2023-04-19T08:45:41.170Z,0.00
2023-04-19T08:46:40.997Z,0.00
2023-04-19T08:47:56.347Z,0.00
2023-04-19T08:48:40.833Z,0.00
2023-04-19T08:49:43.303Z,0.00
2023-04-19T08:50:48.816Z,0.00
2023-04-19T08:51:40.465Z,0.00
2023-04-19T08:52:51.508Z,0.00
2023-04-19T08:53:40.248Z,0.00
2023-04-19T08:54:40.308Z,0.00
2023-04-19T08:55:45.362Z,0.00
2023-04-19T08:56:39.904Z,0.07
2023-04-19T08:57:38.801Z,0.94
2023-04-19T08:58:56.891Z,4.69
2023-04-19T08:59:39.817Z,1.63
2023-04-19T09:00:39.813Z,7.93
2023-04-19T09:01:40.069Z,18.11
2023-04-19T09:02:39.612Z,39.82
2023-04-19T09:03:51.196Z,2.67
2023-04-19T09:04:39.358Z,2.56
2023-04-19T09:05:39.961Z,3.15
2023-04-19T09:06:39.095Z,13.73
2023-04-19T09:07:38.833Z,31.45
2023-04-19T09:08:38.483Z,58.96
2023-04-19T09:09:45.759Z,95.93
2023-04-19T09:10:38.290Z,3.49
2023-04-19T09:11:38.164Z,16.64
2023-04-19T09:12:38.316Z,40.40
2023-04-19T09:13:37.917Z,75.67
2023-04-19T09:14:38.270Z,125.03
2023-04-19T09:15:37.935Z,141.93
2023-04-19T09:16:37.511Z,144.40
2023-04-19T09:17:37.412Z,151.03
2023-04-19T09:18:42.471Z,156.05
2023-04-19T09:19:37.250Z,156.56
2023-04-19T09:20:37.029Z,158.65
2023-04-19T09:21:37.116Z,162.21
2023-04-19T09:22:37.075Z,166.42
2023-04-19T09:23:36.609Z,69.41
2023-04-19T09:25:02.617Z,31.02
2023-04-19T09:26:11.409Z,31.16
2023-04-19T09:26:36.253Z,31.80
2023-04-19T09:27:36.108Z,31.81
2023-04-19T09:28:35.994Z,0.53
2023-04-19T09:29:35.859Z,0.00
2023-04-19T09:30:40.453Z,0.00
2023-04-19T09:31:50.769Z,15.90
2023-04-19T09:32:35.628Z,31.35
2023-04-19T09:33:35.428Z,33.14
2023-04-19T09:34:35.280Z,36.58
2023-04-19T09:35:35.364Z,44.63
2023-04-19T09:36:35.354Z,60.74
2023-04-19T09:38:34.213Z,67.86
2023-04-19T09:39:35.361Z,69.56
2023-04-19T09:40:34.548Z,73.56
2023-04-19T09:41:36.312Z,78.93
2023-04-19T09:42:54.449Z,68.29
2023-04-19T09:43:55.908Z,68.66
2023-04-19T09:45:02.161Z,69.09
2023-04-19T09:45:33.847Z,69.36
2023-04-19T09:46:33.877Z,75.74
2023-04-19T09:47:33.599Z,86.38
2023-04-19T09:48:33.476Z,102.12
2023-04-19T09:50:33.713Z,69.77
2023-04-19T09:51:33.340Z,69.99
2023-04-19T09:52:32.952Z,78.93
2023-04-19T09:53:32.826Z,94.30
2023-04-19T09:54:32.673Z,118.04
2023-04-19T09:55:39.226Z,151.18
2023-04-19T09:56:32.404Z,70.31
2023-04-19T09:57:32.261Z,81.88
2023-04-19T09:58:42.515Z,100.83
2023-04-19T09:59:31.989Z,70.94
2023-04-19T10:00:39.003Z,84.32
2023-04-19T10:01:31.737Z,71.32
2023-04-19T10:02:31.807Z,85.71
2023-04-19T10:03:31.585Z,109.61
2023-04-19T10:04:44.063Z,147.69
2023-04-19T10:05:31.399Z,71.73
2023-04-19T10:06:45.891Z,87.00
2023-04-19T10:07:31.294Z,71.08
2023-04-19T10:08:30.750Z,69.91
2023-04-19T10:09:30.942Z,72.14
2023-04-19T10:11:29.943Z,67.50
2023-04-19T10:12:46.071Z,59.67
2023-04-19T10:13:30.132Z,67.28
2023-04-19T10:14:30.004Z,47.06
2023-04-19T10:15:39.796Z,32.68
2023-04-19T10:16:30.150Z,53.38
2023-04-19T10:17:29.838Z,48.26
2023-04-19T10:18:29.998Z,44.24
2023-04-19T10:19:29.358Z,40.43
2023-04-19T10:20:29.267Z,57.38
2023-04-19T10:21:29.141Z,78.51
2023-04-19T10:22:28.968Z,94.89
2023-04-19T10:23:28.833Z,102.94
2023-04-19T10:24:28.708Z,107.39
2023-04-19T10:25:28.599Z,112.51
2023-04-19T10:26:28.859Z,114.82
2023-04-19T10:27:28.322Z,114.52
2023-04-19T10:28:28.194Z,117.46
2023-04-19T10:29:28.060Z,122.70
2023-04-19T10:30:28.357Z,128.75
2023-04-19T10:31:27.909Z,132.56
2023-04-19T10:32:28.380Z,141.52
2023-04-19T10:33:27.522Z,142.89
2023-04-19T10:34:27.390Z,146.50
2023-04-19T10:35:27.350Z,149.77
2023-04-19T10:36:27.120Z,143.96
2023-04-19T10:37:26.983Z,133.49
2023-04-19T10:38:26.848Z,97.52
2023-04-19T10:39:26.721Z,74.11
2023-04-19T10:40:26.586Z,75.02
2023-04-19T10:41:26.880Z,74.89
2023-04-19T10:42:26.328Z,94.13
2023-04-19T10:43:26.202Z,103.77
2023-04-19T10:44:26.060Z,114.60
2023-04-19T10:45:25.939Z,116.04
2023-04-19T10:46:26.157Z,118.82
2023-04-19T10:47:25.717Z,119.65
2023-04-19T10:48:25.543Z,120.62
2023-04-19T10:49:25.420Z,127.82
2023-04-19T10:50:25.453Z,131.71
2023-04-19T10:51:25.168Z,133.81
2023-04-19T10:52:25.030Z,130.11
2023-04-19T10:53:24.931Z,126.30
2023-04-19T10:54:24.777Z,119.49
2023-04-19T10:55:24.631Z,122.05
2023-04-19T10:56:25.475Z,121.58
2023-04-19T10:57:24.594Z,122.00
2023-04-19T10:58:24.361Z,122.02
2023-04-19T10:59:24.096Z,110.50
2023-04-19T11:00:23.964Z,102.77
2023-04-19T11:01:23.878Z,105.76
2023-04-19T11:02:23.993Z,104.40
2023-04-19T11:03:23.824Z,107.52
2023-04-19T11:04:23.534Z,108.24
2023-04-19T11:05:23.319Z,110.45
2023-04-19T11:06:23.144Z,115.97
2023-04-19T11:07:23.377Z,115.83
2023-04-19T11:08:22.877Z,117.95
2023-04-19T11:09:22.757Z,119.64
2023-04-19T11:10:22.622Z,121.13
2023-04-19T11:11:22.485Z,123.06
2023-04-19T11:12:22.359Z,123.68
2023-04-19T11:13:22.243Z,126.66
2023-04-19T11:14:22.082Z,126.97
2023-04-19T11:15:21.970Z,129.31
2023-04-19T11:16:28.393Z,129.86
2023-04-19T11:17:21.865Z,130.29
2023-04-19T11:18:21.603Z,132.10
2023-04-19T11:19:21.428Z,134.57
2023-04-19T11:20:21.291Z,135.75
2023-04-19T11:21:21.183Z,138.27
2023-04-19T11:22:21.022Z,139.75
2023-04-19T11:23:20.880Z,141.79
2023-04-19T11:24:20.739Z,140.80
2023-04-19T11:25:20.648Z,143.43
2023-04-19T11:26:20.466Z,144.75
2023-04-19T11:27:20.331Z,144.71
2023-04-19T11:28:20.182Z,146.41
2023-04-19T11:29:20.094Z,147.19
2023-04-19T11:30:19.932Z,145.04
2023-04-19T11:31:19.796Z,146.24
2023-04-19T11:32:19.656Z,146.98
2023-04-19T11:33:19.493Z,147.90
2023-04-19T11:34:19.574Z,146.78
2023-04-19T11:35:19.228Z,145.92
2023-04-19T11:36:19.121Z,147.95
2023-04-19T11:37:18.954Z,147.91
2023-04-19T11:38:18.816Z,145.44
2023-04-19T11:39:18.705Z,146.41
2023-04-19T11:40:18.554Z,144.98
2023-04-19T11:41:18.437Z,149.97
2023-04-19T11:42:18.378Z,145.88
2023-04-19T11:43:18.127Z,146.46
2023-04-19T11:44:18.289Z,146.48
2023-04-19T11:45:28.803Z,155.00
2023-04-19T11:46:17.802Z,155.50
2023-04-19T11:47:17.883Z,158.24
2023-04-19T11:48:17.516Z,163.21
2023-04-19T11:49:17.298Z,171.09
2023-04-19T11:50:17.170Z,183.67
2023-04-19T11:51:17.058Z,186.81
2023-04-19T11:52:16.893Z,186.81
2023-04-19T11:53:16.886Z,187.63
2023-04-19T11:54:16.806Z,193.24
2023-04-19T11:55:16.510Z,191.63
2023-04-19T11:56:16.396Z,191.33
2023-04-19T11:57:16.198Z,194.06
2023-04-19T11:58:16.072Z,191.98
2023-04-19T11:59:15.922Z,198.53
2023-04-19T12:00:15.800Z,206.29
2023-04-19T12:01:15.835Z,216.01
2023-04-19T12:02:15.566Z,211.52
2023-04-19T12:03:15.592Z,217.69
2023-04-19T12:04:15.888Z,221.29
2023-04-19T12:05:15.375Z,228.82
2023-04-19T12:06:14.966Z,233.33
2023-04-19T12:07:14.886Z,244.44
2023-04-19T12:08:14.684Z,249.14
2023-04-19T12:09:14.540Z,247.38
2023-04-19T12:10:14.407Z,249.61
2023-04-19T12:11:14.388Z,247.35
2023-04-19T12:12:14.110Z,223.32
2023-04-19T12:13:13.975Z,177.40
2023-04-19T12:14:13.947Z,129.59
2023-04-19T12:15:13.704Z,116.49
2023-04-19T12:16:13.583Z,100.50
2023-04-19T12:17:14.019Z,75.32
2023-04-19T12:18:13.337Z,63.49
2023-04-19T12:19:13.300Z,45.11
2023-04-19T12:20:13.096Z,31.54
2023-04-19T12:21:13.003Z,25.02
2023-04-19T12:22:12.927Z,25.00
2023-04-19T12:23:12.795Z,25.34
2023-04-19T12:24:12.713Z,25.37
2023-04-19T12:25:12.644Z,25.93
2023-04-19T12:26:12.546Z,26.37
2023-04-19T12:27:12.464Z,59.87
2023-04-19T12:28:12.415Z,96.07
2023-04-19T12:29:12.305Z,122.84
2023-04-19T12:30:12.220Z,124.15
2023-04-19T12:31:12.114Z,127.85
2023-04-19T12:32:12.421Z,131.01
2023-04-19T12:33:12.063Z,129.99
2023-04-19T12:34:11.911Z,135.60
2023-04-19T12:35:11.685Z,139.13
2023-04-19T12:36:11.528Z,140.84
2023-04-19T12:37:11.405Z,145.29
2023-04-19T12:38:11.264Z,150.07
2023-04-19T12:39:11.404Z,155.41
2023-04-19T12:40:10.978Z,158.04
2023-04-19T12:41:10.862Z,162.68
2023-04-19T12:42:10.772Z,170.64
2023-04-19T12:43:10.667Z,172.10
2023-04-19T12:44:10.578Z,180.57
2023-04-19T12:45:10.501Z,185.15
2023-04-19T12:46:10.497Z,188.34
2023-04-19T12:47:10.355Z,192.76
2023-04-19T12:48:10.356Z,199.84
2023-04-19T12:49:10.259Z,206.60
2023-04-19T12:50:10.138Z,213.01
2023-04-19T12:51:10.088Z,216.47
2023-04-19T12:52:09.979Z,223.00
2023-04-19T12:53:09.893Z,222.69
2023-04-19T12:54:09.802Z,227.93
2023-04-19T12:55:09.720Z,242.53
2023-04-19T12:56:09.663Z,246.83
2023-04-19T12:57:09.579Z,249.59
2023-04-19T12:58:09.488Z,249.57
2023-04-19T12:59:09.426Z,249.09
2023-04-19T13:00:09.319Z,250.00
2023-04-19T13:01:09.255Z,246.36
